Terminal Aerodrome Forecast
Issued by NWS

Home | Current Version | Previous Version | Text Only | Print | Product List | Glossary On
Versions: 1 2 3 4 5 6 7 8 9 10 11 12 13 14 15 16 17 18 19 20 21 22 23 24 25 26 27
000
FTUS44 KLIX 240520
TAFHDC
TAF
KHDC 240520Z 2406/2506 20008KT P6SM SCT025 BKN035
     FM240800 18006KT P6SM SCT015 BKN035
     FM241300 20008KT P6SM OVC025
      TEMPO 2413/2416 VRB15G25KT 3SM TSRA BKN020CB
     FM241600 22008KT P6SM VCSH BKN035
     FM242100 22009KT P6SM BKN110=

USA.gov is the U.S. government's official web portal to all federal, state and local government web resources and services.